sensor_id;sensor_type;location;lat;lon;timestamp;temperature;humidity
71551;DHT22;59367;48.414;9.872;2022-10-26T00:00:20;13.21850967;69.19708252
71551;DHT22;59367;48.414;9.872;2022-10-26T00:01:28;13.21850967;69.26574707
71551;DHT22;59367;48.414;9.872;2022-10-26T00:02:35;13.24521255;69.30847168
71551;DHT22;59367;48.414;9.872;2022-10-26T00:03:44;13.23186111;69.3069458
71551;DHT22;59367;48.414;9.872;2022-10-26T00:04:51;13.258564;69.36187744
71551;DHT22;59367;48.414;9.872;2022-10-26T00:06:05;13.27458572;69.32525635
71551;DHT22;59367;48.414;9.872;2022-10-26T00:07:13;13.27458572;69.31610107
71551;DHT22;59367;48.414;9.872;2022-10-26T00:08:20;13.27458572;69.27642822
71551;DHT22;59367;48.414;9.872;2022-10-26T00:09:27;13.28793716;69.25811768
71551;DHT22;59367;48.414;9.872;2022-10-26T00:10:37;13.28793716;69.18945313
71551;DHT22;59367;48.414;9.872;2022-10-26T00:11:44;13.27458572;69.15740967
71551;DHT22;59367;48.414;9.872;2022-10-26T00:12:54;13.3012886;69.08416748
71551;DHT22;59367;48.414;9.872;2022-10-26T00:14:01;13.3012886;68.95599365
71551;DHT22;59367;48.414;9.872;2022-10-26T00:15:09;13.33066177;68.96057129
71551;DHT22;59367;48.414;9.872;2022-10-26T00:16:19;13.3012886;68.95599365
71551;DHT22;59367;48.414;9.872;2022-10-26T00:17:27;13.33066177;68.95141602
71551;DHT22;59367;48.414;9.872;2022-10-26T00:18:34;13.34401321;68.98345947
71551;DHT22;59367;48.414;9.872;2022-10-26T00:19:41;13.33066177;69.02008057
71551;DHT22;59367;48.414;9.872;2022-10-26T00:20:49;13.34401321;69.05212402
71551;DHT22;59367;48.414;9.872;2022-10-26T00:21:56;13.35736465;69.06585693
71551;DHT22;59367;48.414;9.872;2022-10-26T00:23:04;13.35736465;69.07348633
71551;DHT22;59367;48.414;9.872;2022-10-26T00:24:13;13.37338638;69.10705566
71551;DHT22;59367;48.414;9.872;2022-10-26T00:25:20;13.35736465;69.07348633
71551;DHT22;59367;48.414;9.872;2022-10-26T00:26:27;13.35736465;69.06585693
71551;DHT22;59367;48.414;9.872;2022-10-26T00:27:35;13.37338638;69.12536621
71551;DHT22;59367;48.414;9.872;2022-10-26T00:28:42;13.38674164;69.1192627
71551;DHT22;59367;48.414;9.872;2022-10-26T00:29:50;13.38674164;69.15740967
71551;DHT22;59367;48.414;9.872;2022-10-26T00:30:58;13.38674164;69.14825439
71551;DHT22;59367;48.414;9.872;2022-10-26T00:32:06;13.38674164;69.05059814
71551;DHT22;59367;48.414;9.872;2022-10-26T00:33:16;13.38674164;69.02008057
71551;DHT22;59367;48.414;9.872;2022-10-26T00:34:23;13.40009308;69.09179688
71551;DHT22;59367;48.414;9.872;2022-10-26T00:35:30;13.40009308;69.1116333
71551;DHT22;59367;48.414;9.872;2022-10-26T00:36:37;13.41344452;69.13299561
71551;DHT22;59367;48.414;9.872;2022-10-26T00:37:45;13.42946625;69.05670166
71551;DHT22;59367;48.414;9.872;2022-10-26T00:38:55;13.42946625;69.13452148
71551;DHT22;59367;48.414;9.872;2022-10-26T00:40:02;13.45616913;69.1619873
71551;DHT22;59367;48.414;9.872;2022-10-26T00:41:10;13.45616913;69.1619873
71551;DHT22;59367;48.414;9.872;2022-10-26T00:42:21;13.44281769;69.17877197
71551;DHT22;59367;48.414;9.872;2022-10-26T00:43:44;13.42946625;69.18487549
71551;DHT22;59367;48.414;9.872;2022-10-26T00:45:08;13.45616913;69.20776367
71551;DHT22;59367;48.414;9.872;2022-10-26T00:46:24;13.4855423;69.13452148
71551;DHT22;59367;48.414;9.872;2022-10-26T00:47:41;13.47219086;69.19250488
71551;DHT22;59367;48.414;9.872;2022-10-26T00:48:53;13.4855423;69.23522949
71551;DHT22;59367;48.414;9.872;2022-10-26T00:50:04;13.4855423;69.20623779
71551;DHT22;59367;48.414;9.872;2022-10-26T00:51:16;13.49889374;69.23828125
71551;DHT22;59367;48.414;9.872;2022-10-26T00:52:27;13.51224518;69.30847168
71551;DHT22;59367;48.414;9.872;2022-10-26T00:53:35;13.4855423;69.28405762
71551;DHT22;59367;48.414;9.872;2022-10-26T00:54:43;13.49889374;69.27642822
71551;DHT22;59367;48.414;9.872;2022-10-26T00:55:52;13.51224518;69.2489624
71551;DHT22;59367;48.414;9.872;2022-10-26T00:56:59;13.49889374;69.15740967
71551;DHT22;59367;48.414;9.872;2022-10-26T00:58:09;13.52826691;69.14367676
71551;DHT22;59367;48.414;9.872;2022-10-26T00:59:18;13.52826691;69.14367676
71551;DHT22;59367;48.414;9.872;2022-10-26T01:00:27;13.51224518;69.17114258
71551;DHT22;59367;48.414;9.872;2022-10-26T01:01:36;13.52826691;69.29321289
71551;DHT22;59367;48.414;9.872;2022-10-26T01:02:46;13.54161835;69.25354004
71551;DHT22;59367;48.414;9.872;2022-10-26T01:03:55;13.51224518;69.27947998
71551;DHT22;59367;48.414;9.872;2022-10-26T01:05:05;13.54161835;69.33441162
71551;DHT22;59367;48.414;9.872;2022-10-26T01:06:14;13.55496979;69.35424805
71551;DHT22;59367;48.414;9.872;2022-10-26T01:07:21;13.55496979;69.34509277
71551;DHT22;59367;48.414;9.872;2022-10-26T01:08:29;13.55496979;69.2855835
71551;DHT22;59367;48.414;9.872;2022-10-26T01:09:38;13.56832123;69.26116943
71551;DHT22;59367;48.414;9.872;2022-10-26T01:10:45;13.58434296;69.22454834
71551;DHT22;59367;48.414;9.872;2022-10-26T01:11:53;13.56832123;69.28863525
71551;DHT22;59367;48.414;9.872;2022-10-26T01:13:00;13.58434296;69.31152344
71551;DHT22;59367;48.414;9.872;2022-10-26T01:14:10;13.56832123;69.26116943
71551;DHT22;59367;48.414;9.872;2022-10-26T01:15:18;13.56832123;69.31762695
71551;DHT22;59367;48.414;9.872;2022-10-26T01:16:58;13.5976944;69.43206787
71551;DHT22;59367;48.414;9.872;2022-10-26T01:18:14;13.5976944;69.35424805
71551;DHT22;59367;48.414;9.872;2022-10-26T01:19:54;13.5976944;69.35424805
71551;DHT22;59367;48.414;9.872;2022-10-26T01:21:23;13.58434296;69.47784424
71551;DHT22;59367;48.414;9.872;2022-10-26T01:22:38;13.5976944;69.38171387
71551;DHT22;59367;48.414;9.872;2022-10-26T01:24:10;13.62707138;69.35882568
71551;DHT22;59367;48.414;9.872;2022-10-26T01:25:32;13.62707138;69.34814453
71551;DHT22;59367;48.414;9.872;2022-10-26T01:26:56;13.61104584;69.43511963
71551;DHT22;59367;48.414;9.872;2022-10-26T01:28:11;13.64042282;69.38018799
71551;DHT22;59367;48.414;9.872;2022-10-26T01:29:52;13.5976944;69.40002441
71551;DHT22;59367;48.414;9.872;2022-10-26T01:31:07;13.64042282;69.44885254
71551;DHT22;59367;48.414;9.872;2022-10-26T01:32:21;13.64042282;69.47784424
71551;DHT22;59367;48.414;9.872;2022-10-26T01:33:38;13.65377426;69.45953369
71551;DHT22;59367;48.414;9.872;2022-10-26T01:34:50;13.6671257;69.49157715
71551;DHT22;59367;48.414;9.872;2022-10-26T01:36:05;13.6671257;69.59075928
71551;DHT22;59367;48.414;9.872;2022-10-26T01:37:17;13.68314743;69.64263916
71551;DHT22;59367;48.414;9.872;2022-10-26T01:38:33;13.68314743;69.66400146
71551;DHT22;59367;48.414;9.872;2022-10-26T01:39:47;13.69916916;69.64569092
71551;DHT22;59367;48.414;9.872;2022-10-26T01:41:02;13.68314743;69.60449219
71551;DHT22;59367;48.414;9.872;2022-10-26T01:42:12;13.69916916;69.50836182
71551;DHT22;59367;48.414;9.872;2022-10-26T01:43:23;13.69916916;69.57702637
71551;DHT22;59367;48.414;9.872;2022-10-26T01:44:32;13.7125206;69.59991455
71551;DHT22;59367;48.414;9.872;2022-10-26T01:45:43;13.69916916;69.54650879
71551;DHT22;59367;48.414;9.872;2022-10-26T01:46:52;13.7125206;69.53125
71551;DHT22;59367;48.414;9.872;2022-10-26T01:48:02;13.72587204;69.49462891
71551;DHT22;59367;48.414;9.872;2022-10-26T01:49:12;13.69916916;69.55871582
71551;DHT22;59367;48.414;9.872;2022-10-26T01:50:22;13.72587204;69.53277588
71551;DHT22;59367;48.414;9.872;2022-10-26T01:51:31;13.74189377;69.29016113
71551;DHT22;59367;48.414;9.872;2022-10-26T01:52:39;13.74189377;69.25811768
71551;DHT22;59367;48.414;9.872;2022-10-26T01:53:48;13.7125206;69.22454834
71551;DHT22;59367;48.414;9.872;2022-10-26T01:55:05;13.72587204;69.28863525
71551;DHT22;59367;48.414;9.872;2022-10-26T01:56:19;13.74189377;69.25811768
71551;DHT22;59367;48.414;9.872;2022-10-26T01:57:27;13.74189377;69.25201416
71551;DHT22;59367;48.414;9.872;2022-10-26T01:58:51;13.72587204;69.24743652
71551;DHT22;59367;48.414;9.872;2022-10-26T02:00:07;13.72587204;69.18792725
71551;DHT22;59367;48.414;9.872;2022-10-26T02:01:22;13.72587204;69.22607422
71551;DHT22;59367;48.414;9.872;2022-10-26T02:02:57;13.72587204;69.28863525
71551;DHT22;59367;48.414;9.872;2022-10-26T02:04:14;13.72587204;69.35424805
71551;DHT22;59367;48.414;9.872;2022-10-26T02:05:35;13.72587204;69.3359375
71551;DHT22;59367;48.414;9.872;2022-10-26T02:06:52;13.72587204;69.32678223
71551;DHT22;59367;48.414;9.872;2022-10-26T02:08:12;13.7125206;69.32525635
71551;DHT22;59367;48.414;9.872;2022-10-26T02:09:27;13.72587204;69.38476563
71551;DHT22;59367;48.414;9.872;2022-10-26T02:10:44;13.69916916;69.38018799
71551;DHT22;59367;48.414;9.872;2022-10-26T02:11:55;13.7125206;69.45953369
71551;DHT22;59367;48.414;9.872;2022-10-26T02:13:07;13.72587204;69.53277588
71551;DHT22;59367;48.414;9.872;2022-10-26T02:14:22;13.69916916;69.52819824
71551;DHT22;59367;48.414;9.872;2022-10-26T02:15:36;13.72587204;69.60144043
71551;DHT22;59367;48.414;9.872;2022-10-26T02:16:48;13.7125206;69.59991455
71551;DHT22;59367;48.414;9.872;2022-10-26T02:18:03;13.72587204;69.56329346
71551;DHT22;59367;48.414;9.872;2022-10-26T02:19:17;13.72587204;69.45495605
71551;DHT22;59367;48.414;9.872;2022-10-26T02:20:31;13.69916916;69.43969727
71551;DHT22;59367;48.414;9.872;2022-10-26T02:21:46;13.72587204;69.4732666
71551;DHT22;59367;48.414;9.872;2022-10-26T02:22:57;13.69916916;69.45800781
71551;DHT22;59367;48.414;9.872;2022-10-26T02:24:09;13.72587204;69.39544678
71551;DHT22;59367;48.414;9.872;2022-10-26T02:25:21;13.72587204;69.3069458
71551;DHT22;59367;48.414;9.872;2022-10-26T02:26:31;13.7125206;69.22454834
71551;DHT22;59367;48.414;9.872;2022-10-26T02:27:42;13.69916916;69.22149658
71551;DHT22;59367;48.414;9.872;2022-10-26T02:28:52;13.69916916;69.21234131
71551;DHT22;59367;48.414;9.872;2022-10-26T02:30:02;13.68314743;69.2199707
71551;DHT22;59367;48.414;9.872;2022-10-26T02:31:11;13.7125206;69.17572021
71551;DHT22;59367;48.414;9.872;2022-10-26T02:32:21;13.69916916;69.13452148
71551;DHT22;59367;48.414;9.872;2022-10-26T02:33:32;13.6671257;69.1986084
71551;DHT22;59367;48.414;9.872;2022-10-26T02:34:42;13.65377426;69.12536621
71551;DHT22;59367;48.414;9.872;2022-10-26T02:35:54;13.68314743;69.12384033
71551;DHT22;59367;48.414;9.872;2022-10-26T02:37:03;13.6671257;69.17877197
71551;DHT22;59367;48.414;9.872;2022-10-26T02:38:12;13.6671257;69.18792725
71551;DHT22;59367;48.414;9.872;2022-10-26T02:39:23;13.62707138;69.21081543
71551;DHT22;59367;48.414;9.872;2022-10-26T02:40:34;13.65377426;69.2855835
71551;DHT22;59367;48.414;9.872;2022-10-26T02:41:43;13.64042282;69.38018799
71551;DHT22;59367;48.414;9.872;2022-10-26T02:42:53;13.65377426;69.3939209
71551;DHT22;59367;48.414;9.872;2022-10-26T02:44:06;13.65377426;69.34356689
71551;DHT22;59367;48.414;9.872;2022-10-26T02:45:20;13.65377426;69.42138672
71551;DHT22;59367;48.414;9.872;2022-10-26T02:46:29;13.65377426;69.49005127
71551;DHT22;59367;48.414;9.872;2022-10-26T02:47:37;13.64042282;69.59686279
71551;DHT22;59367;48.414;9.872;2022-10-26T02:48:45;13.62707138;69.68383789
71551;DHT22;59367;48.414;9.872;2022-10-26T02:49:53;13.64042282;69.61517334
71551;DHT22;59367;48.414;9.872;2022-10-26T02:51:04;13.62707138;69.61364746
71551;DHT22;59367;48.414;9.872;2022-10-26T02:52:21;13.62707138;69.57397461
71551;DHT22;59367;48.414;9.872;2022-10-26T02:53:33;13.6671257;69.4732666
71551;DHT22;59367;48.414;9.872;2022-10-26T02:54:46;13.61104584;69.37561035
71551;DHT22;59367;48.414;9.872;2022-10-26T02:55:56;13.61104584;69.2855835
71551;DHT22;59367;48.414;9.872;2022-10-26T02:57:09;13.61104584;69.27642822
71551;DHT22;59367;48.414;9.872;2022-10-26T02:58:21;13.62707138;69.1116333
71551;DHT22;59367;48.414;9.872;2022-10-26T02:59:31;13.5976944;68.91021729
71551;DHT22;59367;48.414;9.872;2022-10-26T03:00:40;13.58434296;68.84918213
71551;DHT22;59367;48.414;9.872;2022-10-26T03:01:48;13.61104584;68.81408691
71551;DHT22;59367;48.414;9.872;2022-10-26T03:02:59;13.55496979;68.75457764
71551;DHT22;59367;48.414;9.872;2022-10-26T03:04:07;13.55496979;68.76678467
71551;DHT22;59367;48.414;9.872;2022-10-26T03:05:18;13.56832123;68.83544922
71551;DHT22;59367;48.414;9.872;2022-10-26T03:06:27;13.52826691;68.67218018
71551;DHT22;59367;48.414;9.872;2022-10-26T03:07:34;13.55496979;68.64776611
71551;DHT22;59367;48.414;9.872;2022-10-26T03:08:41;13.52826691;68.64318848
71551;DHT22;59367;48.414;9.872;2022-10-26T03:09:49;13.4855423;68.67523193
71551;DHT22;59367;48.414;9.872;2022-10-26T03:10:56;13.49889374;68.72711182
71551;DHT22;59367;48.414;9.872;2022-10-26T03:12:03;13.4855423;68.72558594
71551;DHT22;59367;48.414;9.872;2022-10-26T03:13:12;13.45616913;68.65844727
71551;DHT22;59367;48.414;9.872;2022-10-26T03:14:19;13.44281769;68.59893799
71551;DHT22;59367;48.414;9.872;2022-10-26T03:15:27;13.44281769;68.60809326
71551;DHT22;59367;48.414;9.872;2022-10-26T03:16:34;13.42946625;68.69354248
71551;DHT22;59367;48.414;9.872;2022-10-26T03:17:42;13.42946625;68.74389648
71551;DHT22;59367;48.414;9.872;2022-10-26T03:18:49;13.38674164;68.79425049
71551;DHT22;59367;48.414;9.872;2022-10-26T03:19:56;13.40009308;68.91479492
71551;DHT22;59367;48.414;9.872;2022-10-26T03:21:04;13.38674164;68.94226074
71551;DHT22;59367;48.414;9.872;2022-10-26T03:22:11;13.35736465;68.84918213
71551;DHT22;59367;48.414;9.872;2022-10-26T03:23:18;13.34401321;68.8949585
71551;DHT22;59367;48.414;9.872;2022-10-26T03:24:26;13.34401321;69.0826416
71551;DHT22;59367;48.414;9.872;2022-10-26T03:25:33;13.33066177;69.07958984
71551;DHT22;59367;48.414;9.872;2022-10-26T03:26:40;13.34401321;69.04296875
71551;DHT22;59367;48.414;9.872;2022-10-26T03:27:53;13.31731033;69.45953369
71551;DHT22;59367;48.414;9.872;2022-10-26T03:29:02;13.33066177;69.61975098
71551;DHT22;59367;48.414;9.872;2022-10-26T03:30:10;13.31731033;69.72503662
71551;DHT22;59367;48.414;9.872;2022-10-26T03:31:18;13.34401321;69.79827881
71551;DHT22;59367;48.414;9.872;2022-10-26T03:32:25;13.31731033;69.81506348
71551;DHT22;59367;48.414;9.872;2022-10-26T03:33:32;13.33066177;69.92492676
71551;DHT22;59367;48.414;9.872;2022-10-26T03:34:40;13.31731033;69.97070313
71551;DHT22;59367;48.414;9.872;2022-10-26T03:35:47;13.33066177;69.93408203
71551;DHT22;59367;48.414;9.872;2022-10-26T03:37:00;13.31731033;69.8928833
71551;DHT22;59367;48.414;9.872;2022-10-26T03:38:07;13.37338638;70.20568848
71551;DHT22;59367;48.414;9.872;2022-10-26T03:39:15;13.33066177;70.54290771
71551;DHT22;59367;48.414;9.872;2022-10-26T03:40:22;13.33066177;70.49407959
71551;DHT22;59367;48.414;9.872;2022-10-26T03:41:29;13.33066177;70.34759521
71551;DHT22;59367;48.414;9.872;2022-10-26T03:42:39;13.31731033;70.25604248
71551;DHT22;59367;48.414;9.872;2022-10-26T03:43:46;13.35736465;70.41931152
71551;DHT22;59367;48.414;9.872;2022-10-26T03:44:54;13.34401321;70.88775635
71551;DHT22;59367;48.414;9.872;2022-10-26T03:46:01;13.33066177;71.33026123
71551;DHT22;59367;48.414;9.872;2022-10-26T03:47:08;13.27458572;71.78039551
71551;DHT22;59367;48.414;9.872;2022-10-26T03:48:16;13.27458572;71.85821533
71551;DHT22;59367;48.414;9.872;2022-10-26T03:49:23;13.28793716;71.62475586
71551;DHT22;59367;48.414;9.872;2022-10-26T03:50:30;13.31731033;71.4630127
71551;DHT22;59367;48.414;9.872;2022-10-26T03:51:37;13.35736465;71.71630859
71551;DHT22;59367;48.414;9.872;2022-10-26T03:52:46;13.33066177;72.08557129
71551;DHT22;59367;48.414;9.872;2022-10-26T03:53:53;13.31731033;72.39685059
71551;DHT22;59367;48.414;9.872;2022-10-26T03:55:00;13.28793716;72.5769043
71551;DHT22;59367;48.414;9.872;2022-10-26T03:56:08;13.3012886;72.43347168
71551;DHT22;59367;48.414;9.872;2022-10-26T03:57:15;13.33066177;72.22290039
71551;DHT22;59367;48.414;9.872;2022-10-26T03:58:23;13.35736465;72.10998535
71551;DHT22;59367;48.414;9.872;2022-10-26T03:59:30;13.40009308;72.14660645
71551;DHT22;59367;48.414;9.872;2022-10-26T04:00:38;13.37338638;72.48535156
71551;DHT22;59367;48.414;9.872;2022-10-26T04:01:45;13.41344452;72.37548828
71551;DHT22;59367;48.414;9.872;2022-10-26T04:02:57;13.44281769;72.17407227
71551;DHT22;59367;48.414;9.872;2022-10-26T04:04:05;13.44281769;72.08557129
71551;DHT22;59367;48.414;9.872;2022-10-26T04:05:12;13.51224518;72.00317383
71551;DHT22;59367;48.414;9.872;2022-10-26T04:06:20;13.52826691;71.97570801
71551;DHT22;59367;48.414;9.872;2022-10-26T04:07:27;13.55496979;71.64611816
71551;DHT22;59367;48.414;9.872;2022-10-26T04:08:34;13.56832123;71.43096924
71551;DHT22;59367;48.414;9.872;2022-10-26T04:09:42;13.5976944;71.29974365
71551;DHT22;59367;48.414;9.872;2022-10-26T04:10:49;13.5976944;71.2020874
71551;DHT22;59367;48.414;9.872;2022-10-26T04:11:56;13.61104584;71.1151123
71551;DHT22;59367;48.414;9.872;2022-10-26T04:13:03;13.62707138;71.12884521
71551;DHT22;59367;48.414;9.872;2022-10-26T04:14:11;13.65377426;71.13342285
71551;DHT22;59367;48.414;9.872;2022-10-26T04:15:19;13.62707138;71.12884521
71551;DHT22;59367;48.414;9.872;2022-10-26T04:16:26;13.64042282;71.16088867
71551;DHT22;59367;48.414;9.872;2022-10-26T04:17:34;13.65377426;71.1517334
71551;DHT22;59367;48.414;9.872;2022-10-26T04:18:41;13.6671257;71.17462158
71551;DHT22;59367;48.414;9.872;2022-10-26T04:19:48;13.68314743;71.25701904
71551;DHT22;59367;48.414;9.872;2022-10-26T04:20:56;13.6671257;71.19445801
71551;DHT22;59367;48.414;9.872;2022-10-26T04:22:06;13.68314743;71.13800049
71551;DHT22;59367;48.414;9.872;2022-10-26T04:23:15;13.69916916;71.10137939
71551;DHT22;59367;48.414;9.872;2022-10-26T04:24:23;13.7125206;71.10290527
71551;DHT22;59367;48.414;9.872;2022-10-26T04:25:31;13.75524521;71.11206055
71551;DHT22;59367;48.414;9.872;2022-10-26T04:26:39;13.72587204;71.04644775
71551;DHT22;59367;48.414;9.872;2022-10-26T04:27:46;13.75524521;71.03424072
71551;DHT22;59367;48.414;9.872;2022-10-26T04:28:54;13.76859665;71.01593018
71551;DHT22;59367;48.414;9.872;2022-10-26T04:30:01;13.78461838;70.92895508
71551;DHT22;59367;48.414;9.872;2022-10-26T04:31:08;13.76859665;70.91827393
71551;DHT22;59367;48.414;9.872;2022-10-26T04:32:16;13.79796982;70.94268799
71551;DHT22;59367;48.414;9.872;2022-10-26T04:33:23;13.79796982;70.98236084
71551;DHT22;59367;48.414;9.872;2022-10-26T04:34:30;13.78461838;71.03881836
71551;DHT22;59367;48.414;9.872;2022-10-26T04:35:38;13.79796982;71.04187012
71551;DHT22;59367;48.414;9.872;2022-10-26T04:36:46;13.78461838;71.01898193
71551;DHT22;59367;48.414;9.872;2022-10-26T04:37:55;13.78461838;71.06933594
71551;DHT22;59367;48.414;9.872;2022-10-26T04:39:03;13.79796982;71.09222412
71551;DHT22;59367;48.414;9.872;2022-10-26T04:40:11;13.79796982;71.15783691
71551;DHT22;59367;48.414;9.872;2022-10-26T04:41:18;13.81132126;71.24023438
71551;DHT22;59367;48.414;9.872;2022-10-26T04:42:26;13.8246727;71.25244141
71551;DHT22;59367;48.414;9.872;2022-10-26T04:43:33;13.8246727;71.20361328
71551;DHT22;59367;48.414;9.872;2022-10-26T04:44:40;13.8246727;71.42791748
71551;DHT22;59367;48.414;9.872;2022-10-26T04:45:47;13.79796982;71.6796875
71551;DHT22;59367;48.414;9.872;2022-10-26T04:46:55;13.79796982;71.71020508
71551;DHT22;59367;48.414;9.872;2022-10-26T04:48:08;13.81132126;71.69342041
71551;DHT22;59367;48.414;9.872;2022-10-26T04:49:16;13.84069443;71.58203125
71551;DHT22;59367;48.414;9.872;2022-10-26T04:50:23;13.8246727;71.74377441
71551;DHT22;59367;48.414;9.872;2022-10-26T04:51:30;13.84069443;71.74835205
71551;DHT22;59367;48.414;9.872;2022-10-26T04:52:39;13.84069443;71.66900635
71551;DHT22;59367;48.414;9.872;2022-10-26T04:53:46;13.85404587;71.5133667
71551;DHT22;59367;48.414;9.872;2022-10-26T04:54:53;13.84069443;71.51947021
71551;DHT22;59367;48.414;9.872;2022-10-26T04:56:03;13.86739731;71.55456543
71551;DHT22;59367;48.414;9.872;2022-10-26T04:57:11;13.89677429;71.65985107
71551;DHT22;59367;48.414;9.872;2022-10-26T04:58:18;13.88075256;71.64611816
71551;DHT22;59367;48.414;9.872;2022-10-26T04:59:25;13.88075256;71.75598145
71551;DHT22;59367;48.414;9.872;2022-10-26T05:00:33;13.91012573;71.82922363
71551;DHT22;59367;48.414;9.872;2022-10-26T05:01:40;13.88075256;71.8536377
71551;DHT22;59367;48.414;9.872;2022-10-26T05:02:48;13.91012573;71.83990479
71551;DHT22;59367;48.414;9.872;2022-10-26T05:03:56;13.89677429;71.79870605
71551;DHT22;59367;48.414;9.872;2022-10-26T05:05:04;13.92347717;71.75292969
71551;DHT22;59367;48.414;9.872;2022-10-26T05:06:11;13.91012573;71.63238525
71551;DHT22;59367;48.414;9.872;2022-10-26T05:07:18;13.9394989;71.64764404
71551;DHT22;59367;48.414;9.872;2022-10-26T05:08:26;13.95285034;71.52252197
71551;DHT22;59367;48.414;9.872;2022-10-26T05:09:34;13.96620178;71.46453857
71551;DHT22;59367;48.414;9.872;2022-10-26T05:10:41;13.9394989;71.32263184
71551;DHT22;59367;48.414;9.872;2022-10-26T05:11:49;13.9394989;71.24328613
71551;DHT22;59367;48.414;9.872;2022-10-26T05:12:58;13.95285034;71.25701904
71551;DHT22;59367;48.414;9.872;2022-10-26T05:14:05;13.9394989;71.27532959
71551;DHT22;59367;48.414;9.872;2022-10-26T05:15:13;13.9394989;71.34399414
71551;DHT22;59367;48.414;9.872;2022-10-26T05:16:20;13.95285034;71.35467529
71551;DHT22;59367;48.414;9.872;2022-10-26T05:17:27;13.92347717;71.3180542
71551;DHT22;59367;48.414;9.872;2022-10-26T05:18:35;13.95285034;71.31652832
71551;DHT22;59367;48.414;9.872;2022-10-26T05:19:42;13.9394989;71.29364014
71551;DHT22;59367;48.414;9.872;2022-10-26T05:20:50;13.95285034;71.32568359
71551;DHT22;59367;48.414;9.872;2022-10-26T05:21:58;13.9394989;71.29364014
71551;DHT22;59367;48.414;9.872;2022-10-26T05:23:09;13.9394989;71.29364014
71551;DHT22;59367;48.414;9.872;2022-10-26T05:24:17;13.96620178;71.25854492
71551;DHT22;59367;48.414;9.872;2022-10-26T05:25:24;13.95285034;71.17614746
71551;DHT22;59367;48.414;9.872;2022-10-26T05:26:32;13.95285034;71.11968994
71551;DHT22;59367;48.414;9.872;2022-10-26T05:27:39;13.96620178;71.12121582
71551;DHT22;59367;48.414;9.872;2022-10-26T05:28:46;13.96620178;71.19903564
71551;DHT22;59367;48.414;9.872;2022-10-26T05:29:54;13.96620178;71.19903564
71551;DHT22;59367;48.414;9.872;2022-10-26T05:31:01;13.95285034;71.25701904
71551;DHT22;59367;48.414;9.872;2022-10-26T05:32:08;13.96620178;71.2677002
71551;DHT22;59367;48.414;9.872;2022-10-26T05:33:16;13.96620178;71.24023438
71551;DHT22;59367;48.414;9.872;2022-10-26T05:34:24;13.95285034;71.36688232
71551;DHT22;59367;48.414;9.872;2022-10-26T05:35:31;13.95285034;71.44470215
71551;DHT22;59367;48.414;9.872;2022-10-26T05:36:39;13.96620178;71.51489258
71551;DHT22;59367;48.414;9.872;2022-10-26T05:37:46;13.97955322;71.55609131
71551;DHT22;59367;48.414;9.872;2022-10-26T05:38:53;13.97955322;71.59576416
71551;DHT22;59367;48.414;9.872;2022-10-26T05:40:03;13.96620178;71.55456543
71551;DHT22;59367;48.414;9.872;2022-10-26T05:41:11;13.96620178;71.56524658
71551;DHT22;59367;48.414;9.872;2022-10-26T05:42:18;13.97955322;71.50878906
71551;DHT22;59367;48.414;9.872;2022-10-26T05:43:26;13.96620178;71.56524658
71551;DHT22;59367;48.414;9.872;2022-10-26T05:44:33;13.99557495;71.51947021
71551;DHT22;59367;48.414;9.872;2022-10-26T05:45:41;14.00892639;71.52252197
71551;DHT22;59367;48.414;9.872;2022-10-26T05:46:49;13.99557495;71.44165039
71551;DHT22;59367;48.414;9.872;2022-10-26T05:47:57;13.99557495;71.48132324
71551;DHT22;59367;48.414;9.872;2022-10-26T05:49:04;14.00892639;71.5637207
71551;DHT22;59367;48.414;9.872;2022-10-26T05:50:13;14.03562927;71.55609131
71551;DHT22;59367;48.414;9.872;2022-10-26T05:51:20;14.02227783;71.49658203
71551;DHT22;59367;48.414;9.872;2022-10-26T05:52:27;14.00892639;71.5133667
71551;DHT22;59367;48.414;9.872;2022-10-26T05:53:34;14.00892639;71.55151367
71551;DHT22;59367;48.414;9.872;2022-10-26T05:54:42;14.03562927;71.56829834
71551;DHT22;59367;48.414;9.872;2022-10-26T05:55:50;14.03562927;71.55609131
71551;DHT22;59367;48.414;9.872;2022-10-26T05:57:01;14.02227783;71.56524658
71551;DHT22;59367;48.414;9.872;2022-10-26T05:58:12;14.06500244;71.57287598
71551;DHT22;59367;48.414;9.872;2022-10-26T05:59:21;14.051651;71.56066895
71551;DHT22;59367;48.414;9.872;2022-10-26T06:00:30;14.06500244;71.5637207
71551;DHT22;59367;48.414;9.872;2022-10-26T06:01:47;14.09437561;71.57745361
71551;DHT22;59367;48.414;9.872;2022-10-26T06:03:07;14.07835388;71.48590088
71551;DHT22;59367;48.414;9.872;2022-10-26T06:04:28;14.10772705;71.4630127
71551;DHT22;59367;48.414;9.872;2022-10-26T06:05:40;14.10772705;71.44165039
71551;DHT22;59367;48.414;9.872;2022-10-26T06:07:13;14.13443375;71.42791748
71551;DHT22;59367;48.414;9.872;2022-10-26T06:08:22;14.13443375;71.40808105
71551;DHT22;59367;48.414;9.872;2022-10-26T06:09:32;14.13443375;71.46759033
71551;DHT22;59367;48.414;9.872;2022-10-26T06:10:40;14.15045547;71.39129639
71551;DHT22;59367;48.414;9.872;2022-10-26T06:11:52;14.17715836;71.36688232
71551;DHT22;59367;48.414;9.872;2022-10-26T06:13:08;14.17715836;71.33636475